createdAt,value
2019-05-17T00:02:21.907Z,31.95
2019-05-17T00:04:52.640Z,28.85
2019-05-17T00:07:23.055Z,20.52
2019-05-17T00:09:53.419Z,10.60
2019-05-17T00:12:24.151Z,10.70
2019-05-17T00:14:56.290Z,10.15
2019-05-17T00:17:26.861Z,22.70
2019-05-17T00:19:57.208Z,14.83
2019-05-17T00:22:27.550Z,16.90
2019-05-17T00:24:57.983Z,18.23
2019-05-17T00:27:28.813Z,32.75
2019-05-17T00:29:59.188Z,31.02
2019-05-17T00:32:29.949Z,16.80
2019-05-17T00:35:00.324Z,20.35
2019-05-17T00:37:30.714Z,17.32
2019-05-17T00:40:01.058Z,16.10
2019-05-17T00:42:31.469Z,10.28
2019-05-17T00:45:02.177Z,13.70
2019-05-17T00:47:32.557Z,8.98
2019-05-17T00:50:03.521Z,8.98
2019-05-17T00:52:33.873Z,8.38
2019-05-17T00:55:06.713Z,22.65
2019-05-17T00:57:37.314Z,18.35
2019-05-17T01:00:08.679Z,9.08
2019-05-17T01:02:39.193Z,10.55
2019-05-17T01:05:09.556Z,31.25
2019-05-17T01:07:39.917Z,10.53
2019-05-17T01:10:10.330Z,9.70
2019-05-17T01:12:40.734Z,5.92
2019-05-17T01:15:11.470Z,30.35
2019-05-17T01:17:41.853Z,35.60
2019-05-17T01:20:12.633Z,6.90
2019-05-17T01:22:43.004Z,14.93
2019-05-17T01:25:14.161Z,27.90
2019-05-17T01:27:47.215Z,20.37
2019-05-17T01:30:17.689Z,40.52
2019-05-17T01:32:48.297Z,31.15
2019-05-17T01:35:18.703Z,25.23
2019-05-17T01:37:49.336Z,30.35
2019-05-17T01:40:20.532Z,33.33
2019-05-17T01:42:50.903Z,18.87
2019-05-17T01:45:21.267Z,18.55
2019-05-17T01:47:51.684Z,33.98
2019-05-17T01:50:22.073Z,10.63
2019-05-17T01:52:52.766Z,8.45
2019-05-17T01:55:23.219Z,14.33
2019-05-17T01:57:56.330Z,6.12
2019-05-17T02:00:26.617Z,6.17
2019-05-17T02:02:57.828Z,5.15
2019-05-17T02:05:28.251Z,16.48
2019-05-17T02:07:58.923Z,14.70
2019-05-17T02:10:29.265Z,9.35
2019-05-17T02:12:59.669Z,31.55
2019-05-17T02:15:49.744Z,9.35
2019-05-17T02:18:20.256Z,5.58
2019-05-17T02:20:51.248Z,5.40
2019-05-17T02:23:21.726Z,7.30
2019-05-17T02:25:52.131Z,5.60
2019-05-17T02:28:22.789Z,6.33
2019-05-17T02:30:53.505Z,8.60
2019-05-17T02:33:23.855Z,5.17
2019-05-17T02:35:54.618Z,5.12
2019-05-17T02:38:24.981Z,31.07
2019-05-17T02:40:55.316Z,22.77
2019-05-17T02:43:26.203Z,18.02
2019-05-17T02:45:56.582Z,80.12
2019-05-17T02:48:26.915Z,43.28
2019-05-17T02:50:57.665Z,51.75
2019-05-17T02:53:28.054Z,155.05
2019-05-17T02:55:58.415Z,87.62
2019-05-17T02:58:28.775Z,100.18
2019-05-17T03:00:59.139Z,54.80
2019-05-17T03:03:32.107Z,57.13
2019-05-17T03:06:03.029Z,40.48
2019-05-17T03:08:34.522Z,57.38
2019-05-17T03:11:05.751Z,67.15
2019-05-17T03:13:36.465Z,81.70
2019-05-17T03:16:06.882Z,102.15
2019-05-17T03:18:37.622Z,36.53
2019-05-17T03:21:07.975Z,59.10
2019-05-17T03:23:38.407Z,28.65
2019-05-17T03:26:08.760Z,39.15
2019-05-17T03:28:42.450Z,48.55
2019-05-17T03:31:16.718Z,33.13
2019-05-17T03:33:46.019Z,37.58
2019-05-17T03:36:17.547Z,41.00
2019-05-17T03:38:48.643Z,40.70
2019-05-17T03:41:24.830Z,33.63
2019-05-17T03:43:53.333Z,19.57
2019-05-17T03:46:24.136Z,33.40
2019-05-17T03:48:54.799Z,32.67
2019-05-17T03:51:25.936Z,41.77
2019-05-17T03:53:56.271Z,32.70
2019-05-17T03:56:26.616Z,41.30
2019-05-17T03:58:57.003Z,25.15
2019-05-17T04:01:27.776Z,86.97
2019-05-17T04:03:58.482Z,65.80
2019-05-17T04:06:28.845Z,60.35
2019-05-17T04:08:59.203Z,21.65
2019-05-17T04:11:32.869Z,46.75
2019-05-17T04:14:03.082Z,63.98
2019-05-17T04:16:34.210Z,131.85
2019-05-17T04:19:04.937Z,16.48
2019-05-17T04:21:35.575Z,55.63
2019-05-17T04:24:05.979Z,38.80
2019-05-17T04:26:36.322Z,16.55
2019-05-17T04:29:07.276Z,25.62
2019-05-17T04:31:38.060Z,21.77
2019-05-17T04:34:08.467Z,17.32
2019-05-17T04:36:39.471Z,11.55
2019-05-17T04:39:13.128Z,9.77
2019-05-17T04:41:49.762Z,17.77
2019-05-17T04:44:15.052Z,9.75
2019-05-17T04:46:45.786Z,8.68
2019-05-17T04:49:16.149Z,11.83
2019-05-17T04:51:46.481Z,17.92
2019-05-17T04:54:17.199Z,12.70
2019-05-17T04:56:47.556Z,50.80
2019-05-17T04:59:17.954Z,43.47
2019-05-17T05:01:48.319Z,27.70
2019-05-17T05:04:18.706Z,46.20
2019-05-17T05:06:52.274Z,73.23
2019-05-17T05:09:23.051Z,23.53
2019-05-17T05:12:01.158Z,19.73
2019-05-17T05:14:25.723Z,40.35
2019-05-17T05:16:56.110Z,23.13
2019-05-17T05:19:26.500Z,36.33
2019-05-17T05:21:57.230Z,84.17
2019-05-17T05:24:27.562Z,16.77
2019-05-17T05:26:57.916Z,27.67
2019-05-17T05:29:28.249Z,60.67
2019-05-17T05:31:58.886Z,30.13
2019-05-17T05:34:29.291Z,42.00
2019-05-17T05:37:01.904Z,30.33
2019-05-17T05:39:32.259Z,21.10
2019-05-17T05:42:08.112Z,19.50
2019-05-17T05:44:34.727Z,22.27
2019-05-17T05:47:05.077Z,18.70
2019-05-17T05:49:35.427Z,13.70
2019-05-17T05:52:06.190Z,8.57
2019-05-17T05:54:36.538Z,15.70
2019-05-17T05:57:06.911Z,41.17
2019-05-17T05:59:56.717Z,32.93
2019-05-17T06:02:27.124Z,17.40
2019-05-17T06:04:57.778Z,19.30
2019-05-17T06:07:28.172Z,25.70
2019-05-17T06:09:58.980Z,24.67
2019-05-17T06:12:32.100Z,19.07
2019-05-17T06:15:02.720Z,18.83
2019-05-17T06:17:33.548Z,29.27
2019-05-17T06:20:04.801Z,23.73
2019-05-17T06:22:35.531Z,30.90
2019-05-17T06:25:07.601Z,22.60
2019-05-17T06:27:38.326Z,21.17
2019-05-17T06:30:08.673Z,28.13
2019-05-17T06:32:39.230Z,23.70
2019-05-17T06:35:12.319Z,26.87
2019-05-17T06:37:42.594Z,29.77
2019-05-17T06:40:13.471Z,32.47
2019-05-17T06:42:45.711Z,26.73
2019-05-17T06:45:16.563Z,26.60
2019-05-17T06:47:46.952Z,28.50
2019-05-17T06:50:17.310Z,32.60
2019-05-17T06:52:48.056Z,34.63
2019-05-17T06:55:18.764Z,25.00
2019-05-17T06:57:49.113Z,24.43
2019-05-17T07:00:23.790Z,19.30
2019-05-17T07:02:52.055Z,26.33
2019-05-17T07:05:24.123Z,21.30
2019-05-17T07:07:54.767Z,22.97
2019-05-17T07:10:25.160Z,21.80
2019-05-17T07:12:58.954Z,19.13
2019-05-17T07:15:40.051Z,17.33
2019-05-17T07:18:00.323Z,17.00
2019-05-17T07:20:31.421Z,13.77
2019-05-17T07:23:01.801Z,13.80
2019-05-17T07:25:32.554Z,13.23
2019-05-17T07:28:03.253Z,10.73
2019-05-17T07:30:33.663Z,12.70
2019-05-17T07:33:04.019Z,14.00
2019-05-17T07:35:35.153Z,10.70
2019-05-17T07:38:05.501Z,11.63
2019-05-17T07:40:35.844Z,11.80
2019-05-17T07:43:10.878Z,11.13
2019-05-17T07:45:40.473Z,12.77
2019-05-17T07:48:10.801Z,13.90
2019-05-17T07:50:41.564Z,11.20
2019-05-17T07:53:12.052Z,11.60
2019-05-17T07:55:42.796Z,9.77
2019-05-17T07:58:13.186Z,10.67
2019-05-17T08:00:43.568Z,9.13
2019-05-17T08:03:13.962Z,19.43
2019-05-17T08:05:44.886Z,10.00
2019-05-17T08:08:15.258Z,7.17
2019-05-17T08:10:45.622Z,10.43
2019-05-17T08:13:27.350Z,9.07
2019-05-17T08:15:50.196Z,10.50
2019-05-17T08:18:20.578Z,9.47
2019-05-17T08:20:51.534Z,11.27
2019-05-17T08:23:21.930Z,10.70
2019-05-17T08:25:56.128Z,11.80
2019-05-17T08:28:27.139Z,10.93
2019-05-17T08:30:56.398Z,9.87
2019-05-17T08:33:26.763Z,14.77
2019-05-17T08:35:59.633Z,10.37
2019-05-17T08:38:30.576Z,13.40
2019-05-17T08:41:01.785Z,11.13
2019-05-17T08:43:45.106Z,10.60
2019-05-17T08:46:04.504Z,9.73
2019-05-17T08:48:34.913Z,10.80
2019-05-17T08:51:06.199Z,10.03
2019-05-17T08:53:37.293Z,10.67
2019-05-17T08:56:10.055Z,11.53
2019-05-17T08:58:40.712Z,8.63
2019-05-17T09:01:11.481Z,8.83
2019-05-17T09:03:41.820Z,9.10
2019-05-17T09:06:12.759Z,10.97
2019-05-17T09:08:43.241Z,7.80
2019-05-17T09:11:14.328Z,8.37
2019-05-17T09:13:57.254Z,7.60
2019-05-17T09:16:16.730Z,7.90
2019-05-17T09:18:47.442Z,7.80
2019-05-17T09:21:21.707Z,7.87
2019-05-17T09:23:51.595Z,8.53
2019-05-17T09:26:22.301Z,9.07
2019-05-17T09:28:52.902Z,9.00
2019-05-17T09:31:23.641Z,10.13
2019-05-17T09:33:54.365Z,8.03
2019-05-17T09:36:24.919Z,6.63
2019-05-17T09:38:55.653Z,7.93
2019-05-17T09:41:26.036Z,9.50
2019-05-17T09:44:09.572Z,8.20
2019-05-17T09:46:30.255Z,7.30
2019-05-17T09:49:01.328Z,7.57
2019-05-17T09:51:32.134Z,8.00
2019-05-17T09:54:02.521Z,25.83
2019-05-17T09:56:33.166Z,7.23
2019-05-17T09:59:03.972Z,7.17
2019-05-17T10:01:34.321Z,7.73
2019-05-17T10:04:04.702Z,7.60
2019-05-17T10:06:35.423Z,7.40
2019-05-17T10:09:06.738Z,7.93
2019-05-17T10:11:37.232Z,7.10
2019-05-17T10:14:10.128Z,7.53
2019-05-17T10:16:39.950Z,11.37
2019-05-17T10:19:11.047Z,8.07
2019-05-17T10:21:42.239Z,7.20
2019-05-17T10:24:12.933Z,7.20
2019-05-17T10:26:43.300Z,11.73
2019-05-17T10:29:13.685Z,7.13
2019-05-17T10:31:44.041Z,7.00
2019-05-17T10:34:14.378Z,7.57
2019-05-17T10:36:44.785Z,7.50
2019-05-17T10:39:16.302Z,6.50
2019-05-17T10:41:46.670Z,7.37
2019-05-17T10:44:17.032Z,6.10
2019-05-17T10:46:47.398Z,7.17
2019-05-17T10:49:20.084Z,5.57
2019-05-17T10:51:49.892Z,5.67
2019-05-17T10:54:20.744Z,6.70
2019-05-17T10:56:51.298Z,6.47
2019-05-17T10:59:22.138Z,11.73
2019-05-17T11:01:53.128Z,6.00
2019-05-17T11:04:23.905Z,6.73
2019-05-17T11:06:54.238Z,7.10
2019-05-17T11:09:24.657Z,5.30
2019-05-17T11:11:55.359Z,10.03
2019-05-17T11:14:25.870Z,7.67
2019-05-17T11:16:56.198Z,7.53
2019-05-17T11:19:27.192Z,7.40
2019-05-17T11:21:57.571Z,9.03
2019-05-17T11:24:27.910Z,6.13
2019-05-17T11:26:58.298Z,6.50
2019-05-17T11:29:28.625Z,7.90
2019-05-17T11:31:58.997Z,9.33
2019-05-17T11:34:29.330Z,6.60
2019-05-17T11:36:59.723Z,7.43
2019-05-17T11:39:30.086Z,6.17
2019-05-17T11:42:00.588Z,13.23
2019-05-17T11:44:30.917Z,6.17
2019-05-17T11:47:01.256Z,9.20
2019-05-17T11:49:31.705Z,6.80
2019-05-17T11:52:02.732Z,7.13
2019-05-17T11:54:33.340Z,6.63
2019-05-17T11:57:03.730Z,6.73
2019-05-17T11:59:34.093Z,7.40
2019-05-17T12:02:04.479Z,5.90
2019-05-17T12:04:34.858Z,9.77
2019-05-17T12:07:05.769Z,6.90
2019-05-17T12:09:37.880Z,7.00
2019-05-17T12:12:08.778Z,5.73
2019-05-17T12:14:39.398Z,6.63
2019-05-17T12:17:09.737Z,6.70
2019-05-17T12:19:40.470Z,6.07
2019-05-17T12:22:11.079Z,7.07
2019-05-17T12:24:41.792Z,6.97
2019-05-17T12:27:12.539Z,7.43
2019-05-17T12:29:42.922Z,6.40
2019-05-17T12:32:16.915Z,6.90
2019-05-17T12:34:45.454Z,7.10
2019-05-17T12:37:16.106Z,7.57
2019-05-17T12:39:46.483Z,7.87
2019-05-17T12:42:16.886Z,11.13
2019-05-17T12:44:47.247Z,7.40
2019-05-17T12:47:17.872Z,7.10
2019-05-17T12:49:48.545Z,8.63
2019-05-17T12:52:18.913Z,7.90
2019-05-17T12:54:49.271Z,45.07
2019-05-17T12:57:19.640Z,7.83
2019-05-17T12:59:50.375Z,8.07
2019-05-17T13:02:20.718Z,7.93
2019-05-17T13:04:51.560Z,6.93
2019-05-17T13:07:22.685Z,8.30
2019-05-17T13:09:53.057Z,7.70
2019-05-17T13:12:23.870Z,6.70
2019-05-17T13:14:54.235Z,7.10
2019-05-17T13:17:24.750Z,10.47
2019-05-17T13:19:55.433Z,7.27
2019-05-17T13:22:26.106Z,7.80
2019-05-17T13:24:56.436Z,7.17
2019-05-17T13:27:26.844Z,6.73
2019-05-17T13:29:57.304Z,7.50
2019-05-17T13:32:27.578Z,7.23
2019-05-17T13:34:57.949Z,7.97
2019-05-17T13:37:28.297Z,7.47
2019-05-17T13:39:58.629Z,7.70
2019-05-17T13:42:29.415Z,7.80
2019-05-17T13:44:59.752Z,8.30
2019-05-17T13:47:30.467Z,7.43
2019-05-17T13:50:00.841Z,8.27
2019-05-17T13:52:31.235Z,8.85
2019-05-17T13:55:01.645Z,7.90
2019-05-17T13:57:31.975Z,7.60
2019-05-17T14:00:03.058Z,28.60
2019-05-17T14:02:33.395Z,7.53
2019-05-17T14:05:05.681Z,7.63
2019-05-17T14:07:36.070Z,7.83
2019-05-17T14:10:06.836Z,6.87
2019-05-17T14:12:37.252Z,7.60
2019-05-17T14:15:11.775Z,7.77
2019-05-17T14:17:42.479Z,6.07
2019-05-17T14:20:13.226Z,8.30
2019-05-17T14:22:43.585Z,7.10
2019-05-17T14:25:13.994Z,6.67
2019-05-17T14:27:44.410Z,7.20
2019-05-17T14:30:14.810Z,7.07
2019-05-17T14:32:45.174Z,6.30
2019-05-17T14:35:17.171Z,6.03
2019-05-17T14:37:47.565Z,6.20
2019-05-17T14:40:17.937Z,7.10
2019-05-17T14:42:48.276Z,6.50
2019-05-17T14:45:19.334Z,6.80
2019-05-17T14:47:50.373Z,10.20
2019-05-17T14:50:20.799Z,6.90
2019-05-17T14:52:51.361Z,12.17
2019-05-17T14:55:21.747Z,6.87
2019-05-17T14:57:52.412Z,7.27
2019-05-17T15:00:23.193Z,7.33
2019-05-17T15:02:53.570Z,8.00
2019-05-17T15:05:23.935Z,6.87
2019-05-17T15:07:54.637Z,6.20
2019-05-17T15:10:25.709Z,5.73
2019-05-17T15:12:56.813Z,6.67
2019-05-17T15:15:27.296Z,10.67
2019-05-17T15:17:57.654Z,5.30
2019-05-17T15:20:28.034Z,6.07
2019-05-17T15:22:58.361Z,5.30
2019-05-17T15:25:28.754Z,5.37
2019-05-17T15:27:59.479Z,5.67
2019-05-17T15:30:30.351Z,5.60
2019-05-17T15:33:00.710Z,5.70
2019-05-17T15:35:31.307Z,5.80
2019-05-17T15:38:01.686Z,6.80
2019-05-17T15:40:32.120Z,6.07
2019-05-17T15:43:02.956Z,8.63
2019-05-17T15:45:33.554Z,5.50
2019-05-17T15:48:04.681Z,6.03
2019-05-17T15:50:35.096Z,5.33
2019-05-17T15:53:06.162Z,5.70
2019-05-17T15:55:36.495Z,5.33
2019-05-17T15:58:06.903Z,5.37
2019-05-17T16:00:37.259Z,4.70
2019-05-17T16:03:07.644Z,5.07
2019-05-17T16:05:38.005Z,5.60
2019-05-17T16:08:08.396Z,4.70
2019-05-17T16:10:38.774Z,8.23
2019-05-17T16:13:10.422Z,5.07
2019-05-17T16:15:41.177Z,4.70
2019-05-17T16:18:11.509Z,3.90
2019-05-17T16:20:41.866Z,9.50
2019-05-17T16:23:12.248Z,4.73
2019-05-17T16:25:42.804Z,5.27
2019-05-17T16:28:13.488Z,4.97
2019-05-17T16:30:44.634Z,5.10
2019-05-17T16:33:15.411Z,5.57
2019-05-17T16:35:45.728Z,5.30
2019-05-17T16:38:16.461Z,5.07
2019-05-17T16:40:46.818Z,6.00
2019-05-17T16:43:18.553Z,4.67
2019-05-17T16:45:49.136Z,5.47
2019-05-17T16:48:19.498Z,5.30
2019-05-17T16:50:49.878Z,5.30
2019-05-17T16:53:20.213Z,6.00
2019-05-17T16:55:50.632Z,6.03
2019-05-17T16:58:21.014Z,5.30
2019-05-17T17:00:51.746Z,5.93
2019-05-17T17:03:22.081Z,7.20
2019-05-17T17:05:53.181Z,6.07
2019-05-17T17:08:23.541Z,5.63
2019-05-17T17:10:53.896Z,5.93
2019-05-17T17:13:32.722Z,6.40
2019-05-17T17:15:56.860Z,5.80
2019-05-17T17:18:27.567Z,6.03
2019-05-17T17:20:57.988Z,6.53
2019-05-17T17:23:28.637Z,6.40
2019-05-17T17:25:59.128Z,6.20
2019-05-17T17:28:29.806Z,6.07
2019-05-17T17:31:00.168Z,7.27
2019-05-17T17:33:30.555Z,6.63
2019-05-17T17:36:01.176Z,7.07
2019-05-17T17:38:31.564Z,6.87
2019-05-17T17:41:01.917Z,7.00
2019-05-17T17:43:32.282Z,7.90
2019-05-17T17:46:02.668Z,7.00
2019-05-17T17:48:33.371Z,6.23
2019-05-17T17:51:04.148Z,6.73
2019-05-17T17:53:34.527Z,6.70
2019-05-17T17:56:05.260Z,7.30
2019-05-17T17:58:35.677Z,6.60
2019-05-17T18:01:06.435Z,8.23
2019-05-17T18:03:37.166Z,7.17
2019-05-17T18:06:07.556Z,9.87
2019-05-17T18:08:38.286Z,8.07
2019-05-17T18:11:09.038Z,7.50
2019-05-17T18:13:39.392Z,8.77
2019-05-17T18:16:09.807Z,8.50
2019-05-17T18:18:40.492Z,9.33
2019-05-17T18:21:11.449Z,10.37
2019-05-17T18:23:41.880Z,10.90
2019-05-17T18:26:12.693Z,8.43
2019-05-17T18:28:43.102Z,9.70
2019-05-17T18:31:13.555Z,9.77
2019-05-17T18:33:44.186Z,9.83
2019-05-17T18:36:14.605Z,10.37
2019-05-17T18:38:46.432Z,9.00
2019-05-17T18:41:16.803Z,10.47
2019-05-17T18:43:47.438Z,10.23
2019-05-17T18:46:18.165Z,10.03
2019-05-17T18:48:49.076Z,19.03
2019-05-17T18:51:19.804Z,9.70
2019-05-17T18:53:50.515Z,13.60
2019-05-17T18:56:21.453Z,10.77
2019-05-17T18:58:51.875Z,10.80
2019-05-17T19:01:22.878Z,12.50
2019-05-17T19:03:53.618Z,10.90
2019-05-17T19:06:23.980Z,12.23
2019-05-17T19:08:54.326Z,11.00
2019-05-17T19:11:24.738Z,12.93
2019-05-17T19:13:55.076Z,11.70
2019-05-17T19:16:25.426Z,11.73
2019-05-17T19:18:56.187Z,14.20
2019-05-17T19:21:26.530Z,51.87
2019-05-17T19:23:57.271Z,31.85
2019-05-17T19:26:28.387Z,16.00
2019-05-17T19:28:58.786Z,12.40
2019-05-17T19:31:29.176Z,12.40
2019-05-17T19:33:59.861Z,12.93
2019-05-17T19:36:30.230Z,14.13
2019-05-17T19:39:00.577Z,12.67
2019-05-17T19:41:31.339Z,15.03
2019-05-17T19:44:02.052Z,13.30
2019-05-17T19:46:32.494Z,13.77
2019-05-17T19:49:03.235Z,14.13
2019-05-17T19:51:33.584Z,13.30
2019-05-17T19:54:04.314Z,13.97
2019-05-17T19:56:35.059Z,15.50
2019-05-17T19:59:05.800Z,15.40
2019-05-17T20:01:36.227Z,16.00
2019-05-17T20:04:06.989Z,14.03
2019-05-17T20:06:37.699Z,13.53
2019-05-17T20:09:08.230Z,15.00
2019-05-17T20:11:38.598Z,15.13
2019-05-17T20:14:08.992Z,16.70
2019-05-17T20:16:39.712Z,14.40
2019-05-17T20:19:10.218Z,16.63
2019-05-17T20:21:40.932Z,16.97
2019-05-17T20:24:11.309Z,17.77
2019-05-17T20:26:41.706Z,18.20
2019-05-17T20:29:12.049Z,16.53
2019-05-17T20:31:42.849Z,17.27
2019-05-17T20:34:13.308Z,17.87
2019-05-17T20:36:43.966Z,18.90
2019-05-17T20:39:14.333Z,18.63
2019-05-17T20:41:44.731Z,19.90
2019-05-17T20:44:15.906Z,21.50
2019-05-17T20:46:46.297Z,20.33
2019-05-17T20:49:16.670Z,17.90
2019-05-17T20:51:47.082Z,27.53
2019-05-17T20:54:17.419Z,18.80
2019-05-17T20:56:47.827Z,18.50
2019-05-17T20:59:18.271Z,17.70
2019-05-17T21:01:49.069Z,18.30
2019-05-17T21:04:19.419Z,22.83
2019-05-17T21:06:49.825Z,21.27
2019-05-17T21:09:20.458Z,18.37
2019-05-17T21:11:51.200Z,19.33
2019-05-17T21:14:21.856Z,16.73
2019-05-17T21:16:52.774Z,19.80
2019-05-17T21:19:23.441Z,17.30
2019-05-17T21:21:53.838Z,19.67
2019-05-17T21:24:24.179Z,18.30
2019-05-17T21:26:54.554Z,23.40
2019-05-17T21:29:25.338Z,22.43
2019-05-17T21:31:55.747Z,22.30
2019-05-17T21:34:26.092Z,21.40
2019-05-17T21:36:56.502Z,18.83
2019-05-17T21:39:27.221Z,22.97
2019-05-17T21:41:58.003Z,20.23
2019-05-17T21:44:29.175Z,17.43
2019-05-17T21:47:04.835Z,19.53
2019-05-17T21:49:31.673Z,17.70
2019-05-17T21:52:02.284Z,17.80
2019-05-17T21:54:32.688Z,22.67
2019-05-17T21:57:03.031Z,16.57
2019-05-17T21:59:33.903Z,20.55
2019-05-17T22:02:04.301Z,17.50
2019-05-17T22:04:34.665Z,18.53
2019-05-17T22:07:05.030Z,18.80
2019-05-17T22:09:35.615Z,20.20
2019-05-17T22:12:10.496Z,19.37
2019-05-17T22:14:41.259Z,16.77
2019-05-17T22:17:11.979Z,17.10
2019-05-17T22:19:42.732Z,20.60
2019-05-17T22:22:13.248Z,18.17
2019-05-17T22:24:43.662Z,15.87
2019-05-17T22:27:14.003Z,19.93
2019-05-17T22:29:44.656Z,19.70
2019-05-17T22:32:15.077Z,17.63
2019-05-17T22:34:45.784Z,18.70
2019-05-17T22:37:17.642Z,21.80
2019-05-17T22:39:48.514Z,17.67
2019-05-17T22:42:19.336Z,21.47
2019-05-17T22:44:49.849Z,24.27
2019-05-17T22:47:21.057Z,22.53
2019-05-17T22:49:51.426Z,19.57
2019-05-17T22:52:22.536Z,22.00
2019-05-17T22:54:52.904Z,23.73
2019-05-17T22:57:23.283Z,19.10
2019-05-17T22:59:53.718Z,25.20
2019-05-17T23:02:24.357Z,22.43
2019-05-17T23:04:54.761Z,21.30
2019-05-17T23:07:25.476Z,21.53
2019-05-17T23:09:55.908Z,23.53
2019-05-17T23:12:26.204Z,23.37
2019-05-17T23:14:56.865Z,22.23
2019-05-17T23:17:27.638Z,23.20
2019-05-17T23:19:58.682Z,24.43
2019-05-17T23:22:29.248Z,24.23
2019-05-17T23:25:00.207Z,27.83
2019-05-17T23:27:30.968Z,23.00
2019-05-17T23:30:01.339Z,22.23
2019-05-17T23:32:31.691Z,24.90
2019-05-17T23:35:02.072Z,28.03
2019-05-17T23:37:32.465Z,22.53
2019-05-17T23:40:03.580Z,24.43
2019-05-17T23:42:34.444Z,24.23
2019-05-17T23:45:10.161Z,24.37
2019-05-17T23:47:40.503Z,24.33
2019-05-17T23:50:12.314Z,25.40
2019-05-17T23:52:42.885Z,31.90
2019-05-17T23:55:13.282Z,24.67
2019-05-17T23:57:44.013Z,25.50
